createdAt,value
2024-05-09T00:02:54.816Z,61.14
2024-05-09T00:07:57.378Z,61.10
2024-05-09T00:12:59.939Z,61.66
2024-05-09T00:18:03.246Z,61.83
2024-05-09T00:23:07.664Z,61.48
2024-05-09T00:28:11.684Z,61.68
2024-05-09T00:33:14.601Z,61.99
2024-05-09T00:38:17.429Z,61.65
2024-05-09T00:43:20.028Z,62.05
2024-05-09T00:48:22.679Z,62.67
2024-05-09T00:53:26.473Z,62.34
2024-05-09T00:58:30.772Z,62.28
2024-05-09T01:03:33.542Z,62.37
2024-05-09T01:08:36.366Z,62.39
2024-05-09T01:13:39.024Z,62.30
2024-05-09T01:18:41.676Z,62.14
2024-05-09T01:23:44.237Z,62.20
2024-05-09T01:28:46.850Z,62.31
2024-05-09T01:33:49.555Z,63.04
2024-05-09T01:38:52.178Z,63.21
2024-05-09T01:43:54.849Z,63.22
2024-05-09T01:48:57.723Z,62.71
2024-05-09T01:54:00.330Z,62.61
2024-05-09T01:59:02.929Z,62.80
2024-05-09T02:04:06.954Z,62.95
2024-05-09T02:09:10.080Z,62.99
2024-05-09T02:14:12.967Z,62.88
2024-05-09T02:19:15.757Z,63.11
2024-05-09T02:24:18.416Z,63.13
2024-05-09T02:29:21.230Z,63.46
2024-05-09T02:34:24.438Z,63.03
2024-05-09T02:39:26.993Z,63.47
2024-05-09T02:44:29.556Z,63.18
2024-05-09T02:49:32.274Z,63.74
2024-05-09T02:54:34.850Z,63.65
2024-05-09T02:59:37.433Z,63.64
2024-05-09T03:04:40.078Z,63.48
2024-05-09T03:09:48.690Z,64.16
2024-05-09T03:14:51.379Z,63.75
2024-05-09T03:19:53.972Z,63.57
2024-05-09T03:24:56.492Z,63.71
2024-05-09T03:29:59.313Z,63.03
2024-05-09T03:35:01.825Z,63.15
2024-05-09T03:40:09.187Z,63.38
2024-05-09T03:45:14.301Z,63.42
2024-05-09T03:50:22.765Z,63.27
2024-05-09T03:55:32.345Z,63.39
2024-05-09T04:00:38.691Z,63.16
2024-05-09T04:05:44.606Z,63.10
2024-05-09T04:10:48.493Z,62.99
2024-05-09T04:15:51.079Z,63.36
2024-05-09T04:20:53.710Z,63.09
2024-05-09T04:25:56.403Z,62.89
2024-05-09T04:30:58.966Z,62.94
2024-05-09T04:36:01.512Z,62.44
2024-05-09T04:41:04.121Z,63.02
2024-05-09T04:46:06.715Z,62.95
2024-05-09T04:51:09.261Z,62.33
2024-05-09T04:56:11.875Z,62.57
2024-05-09T05:01:16.408Z,62.33
2024-05-09T05:06:18.999Z,62.95
2024-05-09T05:11:21.737Z,62.16
2024-05-09T05:16:24.340Z,61.87
2024-05-09T05:21:27.094Z,61.58
2024-05-09T05:26:29.835Z,61.90
2024-05-09T05:31:32.408Z,61.59
2024-05-09T05:36:34.974Z,61.60
2024-05-09T05:41:37.555Z,61.72
2024-05-09T05:46:40.274Z,61.62
2024-05-09T05:51:42.895Z,61.75
2024-05-09T05:56:45.547Z,60.48
2024-05-09T06:01:48.107Z,60.35
2024-05-09T06:06:50.879Z,59.74
2024-05-09T06:11:53.682Z,59.69
2024-05-09T06:16:58.199Z,60.06
2024-05-09T06:22:01.754Z,59.38
2024-05-09T06:27:06.200Z,59.54
2024-05-09T06:32:08.828Z,59.39
2024-05-09T06:37:11.364Z,59.62
2024-05-09T06:42:14.027Z,59.40
2024-05-09T06:47:16.713Z,58.89
2024-05-09T06:52:19.579Z,59.02
2024-05-09T06:57:23.242Z,58.30
2024-05-09T07:02:25.974Z,58.02
2024-05-09T07:07:29.439Z,57.22
2024-05-09T07:12:32.664Z,57.43
2024-05-09T07:17:35.683Z,56.64
2024-05-09T07:22:38.375Z,55.93
2024-05-09T07:27:40.869Z,54.82
2024-05-09T07:32:45.126Z,53.56
2024-05-09T07:37:48.116Z,52.59
2024-05-09T07:42:50.683Z,50.73
2024-05-09T07:49:43.603Z,49.34
2024-05-09T07:53:37.847Z,49.91
2024-05-09T07:58:38.956Z,49.25
2024-05-09T08:03:41.764Z,47.92
2024-05-09T08:08:46.795Z,46.67
2024-05-09T08:13:49.296Z,47.06
2024-05-09T08:18:51.979Z,45.41
2024-05-09T08:23:54.579Z,45.02
2024-05-09T08:28:57.091Z,43.85
2024-05-09T08:33:59.753Z,42.53
2024-05-09T08:39:02.386Z,41.50
2024-05-09T08:44:05.417Z,39.97
2024-05-09T08:49:09.093Z,39.74
2024-05-09T08:54:12.161Z,38.90
2024-05-09T08:59:21.792Z,36.85
2024-05-09T09:04:25.307Z,36.12
2024-05-09T09:09:28.550Z,37.90
2024-05-09T09:14:31.163Z,37.58
2024-05-09T09:19:34.584Z,37.64
2024-05-09T09:24:38.514Z,35.63
2024-05-09T09:29:41.451Z,36.16
2024-05-09T09:34:44.679Z,34.08
2024-05-09T09:39:49.160Z,34.78
2024-05-09T09:45:02.082Z,34.19
2024-05-09T09:50:14.433Z,33.07
2024-05-09T09:55:22.804Z,33.71
2024-05-09T10:00:32.953Z,33.29
2024-05-09T10:05:37.434Z,32.91
2024-05-09T10:10:47.933Z,32.13
2024-05-09T10:15:54.601Z,30.39
2024-05-09T10:20:57.670Z,32.79
2024-05-09T10:26:06.286Z,28.95
2024-05-09T10:31:13.578Z,29.98
2024-05-09T10:36:23.649Z,30.66
2024-05-09T10:41:26.406Z,31.27
2024-05-09T10:46:29.014Z,32.13
2024-05-09T10:51:31.799Z,31.64
2024-05-09T10:56:34.329Z,31.28
2024-05-09T11:01:37.273Z,32.03
2024-05-09T11:06:40.614Z,32.73
2024-05-09T11:11:43.280Z,32.00
2024-05-09T11:16:45.850Z,31.79
2024-05-09T11:21:52.072Z,31.50
2024-05-09T11:26:54.606Z,32.86
2024-05-09T11:31:57.118Z,32.35
2024-05-09T11:36:59.748Z,31.14
2024-05-09T11:42:02.309Z,31.87
2024-05-09T11:47:05.214Z,32.18
2024-05-09T11:52:07.795Z,31.97
2024-05-09T11:57:10.591Z,31.67
2024-05-09T12:02:13.522Z,32.16
2024-05-09T12:07:18.003Z,32.40
2024-05-09T12:12:20.643Z,32.34
2024-05-09T12:17:23.240Z,31.90
2024-05-09T12:22:25.996Z,30.76
2024-05-09T12:27:29.040Z,31.26
2024-05-09T12:32:32.185Z,30.32
2024-05-09T12:37:34.967Z,31.52
2024-05-09T12:42:37.634Z,31.15
2024-05-09T12:47:40.614Z,30.29
2024-05-09T12:52:43.700Z,30.79
2024-05-09T12:57:48.989Z,30.46
2024-05-09T13:02:52.362Z,30.44
2024-05-09T13:07:57.037Z,30.11
2024-05-09T13:13:00.888Z,29.79
2024-05-09T13:18:05.104Z,30.37
2024-05-09T13:23:09.137Z,30.78
2024-05-09T13:28:13.075Z,30.00
2024-05-09T13:33:15.913Z,30.19
2024-05-09T13:38:20.527Z,30.03
2024-05-09T13:43:23.988Z,29.94
2024-05-09T13:48:26.764Z,29.60
2024-05-09T13:53:29.290Z,30.60
2024-05-09T13:58:32.058Z,30.81
2024-05-09T14:03:34.804Z,29.40
2024-05-09T14:08:37.441Z,29.86
2024-05-09T14:13:40.138Z,30.09
2024-05-09T14:18:43.714Z,30.12
2024-05-09T14:23:46.290Z,29.59
2024-05-09T14:28:50.185Z,29.27
2024-05-09T14:33:53.215Z,30.19
2024-05-09T14:38:57.368Z,31.05
2024-05-09T14:44:00.573Z,30.00
2024-05-09T14:49:04.004Z,29.88
2024-05-09T14:54:06.982Z,29.86
2024-05-09T14:59:09.522Z,29.74
2024-05-09T15:04:12.162Z,30.23
2024-05-09T15:09:15.075Z,30.14
2024-05-09T15:18:50.551Z,29.92
2024-05-09T15:23:53.219Z,29.93
2024-05-09T15:28:55.737Z,29.59
2024-05-09T15:33:58.396Z,30.48
2024-05-09T15:39:01.079Z,30.01
2024-05-09T15:44:03.629Z,29.53
2024-05-09T15:49:06.380Z,30.95
2024-05-09T15:54:08.957Z,29.85
2024-05-09T15:59:11.748Z,29.66
2024-05-09T16:04:15.180Z,29.85
2024-05-09T16:09:18.372Z,30.04
2024-05-09T16:14:21.033Z,30.16
2024-05-09T16:19:23.632Z,31.00
2024-05-09T16:24:26.271Z,31.97
2024-05-09T16:29:28.822Z,31.81
2024-05-09T16:34:31.414Z,31.04
2024-05-09T16:39:33.951Z,32.34
2024-05-09T16:44:36.494Z,31.69
2024-05-09T16:49:39.034Z,32.07
2024-05-09T16:54:41.686Z,31.25
2024-05-09T16:59:44.209Z,31.78
2024-05-09T17:04:46.845Z,31.80
2024-05-09T17:09:49.643Z,32.99
2024-05-09T17:14:52.286Z,33.85
2024-05-09T17:19:54.853Z,34.25
2024-05-09T17:24:57.457Z,34.38
2024-05-09T17:30:00.023Z,34.65
2024-05-09T17:35:02.932Z,34.45
2024-05-09T17:40:14.356Z,34.85
2024-05-09T17:45:20.711Z,34.66
2024-05-09T17:50:30.331Z,35.16
2024-05-09T17:55:37.666Z,36.21
2024-05-09T18:00:42.390Z,37.18
2024-05-09T18:05:45.760Z,37.86
2024-05-09T18:10:48.752Z,38.44
2024-05-09T18:15:53.306Z,38.51
2024-05-09T18:20:55.940Z,39.25
2024-05-09T18:25:58.503Z,39.32
2024-05-09T18:31:02.205Z,39.91
2024-05-09T18:36:04.854Z,40.70
2024-05-09T18:41:07.704Z,41.44
2024-05-09T18:46:10.752Z,42.42
2024-05-09T18:51:14.690Z,43.25
2024-05-09T18:56:17.252Z,43.63
2024-05-09T19:01:20.641Z,43.56
2024-05-09T19:06:24.834Z,44.53
2024-05-09T19:11:27.513Z,44.63
2024-05-09T19:16:30.311Z,45.00
2024-05-09T19:21:33.652Z,45.63
2024-05-09T19:26:37.112Z,46.08
2024-05-09T19:31:39.899Z,46.41
2024-05-09T19:36:42.890Z,47.15
2024-05-09T19:41:45.407Z,47.52
2024-05-09T19:46:48.776Z,47.67
2024-05-09T19:51:51.596Z,47.69
2024-05-09T19:56:57.531Z,48.14
2024-05-09T20:02:01.791Z,48.91
2024-05-09T20:07:05.148Z,48.85
2024-05-09T20:12:09.870Z,48.96
2024-05-09T20:17:13.126Z,49.36
2024-05-09T20:22:17.017Z,49.65
2024-05-09T20:27:21.973Z,49.66
2024-05-09T20:32:25.707Z,50.07
2024-05-09T20:37:28.645Z,49.99
2024-05-09T20:42:31.750Z,50.24
2024-05-09T20:47:35.409Z,50.28
2024-05-09T20:52:39.095Z,50.86
2024-05-09T20:57:42.824Z,50.84
2024-05-09T21:02:47.274Z,51.29
2024-05-09T21:07:51.059Z,51.36
2024-05-09T21:12:54.684Z,51.88
2024-05-09T21:17:59.901Z,52.70
2024-05-09T21:23:03.786Z,52.38
2024-05-09T21:28:08.045Z,52.49
2024-05-09T21:33:14.430Z,52.67
2024-05-09T21:38:18.048Z,53.36
2024-05-09T21:43:20.811Z,53.58
2024-05-09T21:48:23.529Z,53.72
2024-05-09T21:53:26.103Z,53.93
2024-05-09T21:58:28.987Z,53.74
2024-05-09T22:03:31.681Z,54.16
2024-05-09T22:08:34.286Z,54.78
2024-05-09T22:13:36.844Z,54.67
2024-05-09T22:18:39.592Z,54.62
2024-05-09T22:23:42.276Z,55.23
2024-05-09T22:28:44.873Z,55.10
2024-05-09T22:33:48.228Z,55.64
2024-05-09T22:38:51.097Z,55.56
2024-05-09T22:43:53.663Z,55.57
2024-05-09T22:48:56.359Z,55.55
2024-05-09T22:53:59.255Z,55.64
2024-05-09T22:59:02.043Z,55.90
2024-05-09T23:04:04.800Z,56.10
2024-05-09T23:09:08.282Z,55.94
2024-05-09T23:14:12.578Z,56.42
2024-05-09T23:19:15.284Z,56.58
2024-05-09T23:24:17.821Z,57.15
2024-05-09T23:29:20.479Z,57.57
2024-05-09T23:34:23.233Z,57.01
2024-05-09T23:39:25.842Z,57.57
2024-05-09T23:44:28.410Z,57.71
2024-05-09T23:49:31.078Z,57.24
2024-05-09T23:54:33.699Z,57.76
2024-05-09T23:59:36.266Z,57.96
